createdAt,value
2018-09-14T00:00:17.320Z,23.50647
2018-09-14T00:00:46.731Z,23.576965
2018-09-14T00:01:16.037Z,23.597107
2018-09-14T00:01:45.340Z,23.627319
2018-09-14T00:02:14.760Z,23.627319
2018-09-14T00:02:44.095Z,23.677673
2018-09-14T00:03:13.808Z,23.687744
2018-09-14T00:03:43.813Z,23.677673
2018-09-14T00:04:13.280Z,23.687744
2018-09-14T00:04:42.579Z,23.717957
2018-09-14T00:05:11.963Z,23.728027
2018-09-14T00:05:41.270Z,23.717957
2018-09-14T00:06:10.650Z,23.717957
2018-09-14T00:06:39.967Z,23.728027
2018-09-14T00:07:09.281Z,23.717957
2018-09-14T00:07:38.595Z,23.728027
2018-09-14T00:08:07.943Z,23.748169
2018-09-14T00:08:37.262Z,23.697815
2018-09-14T00:09:06.589Z,23.697815
2018-09-14T00:09:35.902Z,23.728027
2018-09-14T00:10:05.269Z,23.748169
2018-09-14T00:10:34.604Z,23.75824
2018-09-14T00:11:03.922Z,23.778381
2018-09-14T00:11:34.245Z,23.798523
2018-09-14T00:12:03.557Z,23.798523
2018-09-14T00:12:32.885Z,23.788452
2018-09-14T00:13:02.210Z,23.75824
2018-09-14T00:13:31.504Z,23.697815
2018-09-14T00:14:00.819Z,23.647461
2018-09-14T00:14:30.139Z,23.677673
2018-09-14T00:14:59.465Z,23.717957
2018-09-14T00:15:28.827Z,23.697815
2018-09-14T00:15:58.148Z,23.748169
2018-09-14T00:16:27.473Z,23.748169
2018-09-14T00:16:56.805Z,23.75824
2018-09-14T00:17:26.128Z,23.788452
2018-09-14T00:17:56.456Z,23.788452
2018-09-14T00:18:25.775Z,23.788452
2018-09-14T00:18:55.092Z,23.828735
2018-09-14T00:19:24.403Z,23.828735
2018-09-14T00:19:53.729Z,23.788452
2018-09-14T00:20:23.094Z,23.647461
2018-09-14T00:20:52.420Z,23.607178
2018-09-14T00:21:21.737Z,23.607178
2018-09-14T00:21:51.067Z,23.576965
2018-09-14T00:22:20.396Z,23.546753
2018-09-14T00:22:49.713Z,23.546753
2018-09-14T00:23:19.027Z,23.50647
2018-09-14T00:23:48.349Z,23.526611
2018-09-14T00:24:17.676Z,23.526611
2018-09-14T00:24:46.992Z,23.50647
2018-09-14T00:25:16.313Z,23.536682
2018-09-14T00:25:45.685Z,23.526611
2018-09-14T00:26:14.997Z,23.536682
2018-09-14T00:26:44.290Z,23.597107
2018-09-14T00:27:13.602Z,23.546753
2018-09-14T00:27:42.913Z,23.476257
2018-09-14T00:28:12.232Z,23.415833
2018-09-14T00:28:41.542Z,23.38562
2018-09-14T00:29:10.847Z,23.395691
2018-09-14T00:29:40.187Z,23.425903
2018-09-14T00:30:10.551Z,23.315125
2018-09-14T00:30:39.926Z,23.234558
2018-09-14T00:31:09.271Z,23.123779
2018-09-14T00:31:38.585Z,23.093567
2018-09-14T00:32:07.917Z,23.093567
2018-09-14T00:32:37.224Z,23.073425
2018-09-14T00:33:06.557Z,23.023071
2018-09-14T00:33:35.873Z,23.013
2018-09-14T00:34:05.193Z,22.982788
2018-09-14T00:34:34.511Z,23.00293
2018-09-14T00:35:04.814Z,22.982788
2018-09-14T00:35:34.130Z,22.972717
2018-09-14T00:36:03.489Z,22.982788
2018-09-14T00:36:32.808Z,23.023071
2018-09-14T00:37:02.123Z,23.123779
2018-09-14T00:37:31.434Z,23.174133
2018-09-14T00:38:00.732Z,23.2547
2018-09-14T00:38:30.051Z,23.284912
2018-09-14T00:38:59.370Z,23.315125
2018-09-14T00:39:28.693Z,23.355408
2018-09-14T00:39:58.015Z,23.425903
2018-09-14T00:40:27.337Z,23.466187
2018-09-14T00:40:56.724Z,23.476257
2018-09-14T00:41:26.046Z,23.526611
2018-09-14T00:41:55.354Z,23.576965
2018-09-14T00:42:24.680Z,23.597107
2018-09-14T00:42:53.986Z,23.607178
2018-09-14T00:43:23.312Z,23.627319
2018-09-14T00:43:52.637Z,23.576965
2018-09-14T00:44:21.959Z,23.576965
2018-09-14T00:44:51.286Z,23.607178
2018-09-14T00:45:20.599Z,23.597107
2018-09-14T00:45:49.913Z,23.576965
2018-09-14T00:46:19.275Z,23.576965
2018-09-14T00:46:49.579Z,23.607178
2018-09-14T00:47:18.902Z,23.647461
2018-09-14T00:47:48.213Z,23.627319
2018-09-14T00:48:17.528Z,23.546753
2018-09-14T00:48:46.849Z,23.425903
2018-09-14T00:49:16.155Z,23.375549
2018-09-14T00:49:45.461Z,23.355408
2018-09-14T00:50:14.779Z,23.395691
2018-09-14T00:50:44.086Z,23.355408
2018-09-14T00:51:14.436Z,23.395691
2018-09-14T00:51:43.756Z,23.395691
2018-09-14T00:52:13.058Z,23.415833
2018-09-14T00:52:42.385Z,23.375549
2018-09-14T00:53:11.692Z,23.355408
2018-09-14T00:53:41.013Z,23.375549
2018-09-14T00:54:10.348Z,23.395691
2018-09-14T00:54:39.653Z,23.466187
2018-09-14T00:55:08.971Z,23.456116
2018-09-14T00:55:38.290Z,23.355408
2018-09-14T00:56:07.584Z,23.284912
2018-09-14T00:56:36.962Z,23.234558
2018-09-14T00:57:06.257Z,23.164062
2018-09-14T00:57:35.588Z,23.103638
2018-09-14T00:58:04.902Z,23.153992
2018-09-14T00:58:35.220Z,23.174133
2018-09-14T00:59:04.535Z,23.2547
2018-09-14T00:59:33.853Z,23.224487
2018-09-14T01:00:03.170Z,23.174133
2018-09-14T01:00:32.502Z,23.164062
2018-09-14T01:01:01.828Z,23.13385
2018-09-14T01:01:31.240Z,23.174133
2018-09-14T01:02:00.557Z,23.194275
2018-09-14T01:02:29.912Z,23.234558
2018-09-14T01:02:59.234Z,23.315125
2018-09-14T01:03:28.551Z,23.345337
2018-09-14T01:03:57.878Z,23.375549
2018-09-14T01:04:27.193Z,23.38562
2018-09-14T01:04:56.514Z,23.395691
2018-09-14T01:05:25.823Z,23.425903
2018-09-14T01:05:55.147Z,23.38562
2018-09-14T01:06:24.476Z,23.395691
2018-09-14T01:06:53.855Z,23.395691
2018-09-14T01:07:23.172Z,23.395691
2018-09-14T01:07:52.483Z,23.38562
2018-09-14T01:08:21.804Z,23.325195
2018-09-14T01:08:51.133Z,23.355408
2018-09-14T01:09:20.457Z,23.38562
2018-09-14T01:09:49.786Z,23.395691
2018-09-14T01:10:19.094Z,23.466187
2018-09-14T01:10:48.453Z,23.476257
2018-09-14T01:11:17.754Z,23.496399
2018-09-14T01:11:47.148Z,23.50647
2018-09-14T01:12:16.483Z,23.476257
2018-09-14T01:12:45.788Z,23.466187
2018-09-14T01:13:15.116Z,23.456116
2018-09-14T01:13:44.433Z,23.425903
2018-09-14T01:14:13.716Z,23.476257
2018-09-14T01:14:43.114Z,23.526611
2018-09-14T01:15:12.427Z,23.546753
2018-09-14T01:15:41.740Z,23.566895
2018-09-14T01:16:11.078Z,23.576965
2018-09-14T01:16:40.421Z,23.597107
2018-09-14T01:17:09.804Z,23.607178
2018-09-14T01:17:39.106Z,23.607178
2018-09-14T01:18:08.428Z,23.627319
2018-09-14T01:18:37.754Z,23.627319
2018-09-14T01:19:07.078Z,23.627319
2018-09-14T01:19:36.371Z,23.627319
2018-09-14T01:20:05.712Z,23.647461
2018-09-14T01:20:35.027Z,23.647461
2018-09-14T01:21:04.347Z,23.657532
2018-09-14T01:21:33.657Z,23.677673
2018-09-14T01:22:04.032Z,23.687744
2018-09-14T01:22:33.363Z,23.657532
2018-09-14T01:23:02.683Z,23.657532
2018-09-14T01:23:32.006Z,23.657532
2018-09-14T01:24:01.316Z,23.687744
2018-09-14T01:24:30.622Z,23.687744
2018-09-14T01:24:59.953Z,23.677673
2018-09-14T01:25:29.259Z,23.647461
2018-09-14T01:25:58.569Z,23.657532
2018-09-14T01:26:27.893Z,23.677673
2018-09-14T01:26:57.208Z,23.687744
2018-09-14T01:27:26.589Z,23.687744
2018-09-14T01:27:55.904Z,23.717957
2018-09-14T01:28:25.241Z,23.728027
2018-09-14T01:28:54.551Z,23.748169
2018-09-14T01:29:23.864Z,23.697815
2018-09-14T01:29:53.169Z,23.728027
2018-09-14T01:30:22.480Z,23.717957
2018-09-14T01:30:51.817Z,23.697815
2018-09-14T01:31:21.118Z,23.717957
2018-09-14T01:31:50.436Z,23.717957
2018-09-14T01:32:19.786Z,23.717957
2018-09-14T01:32:49.090Z,23.728027
2018-09-14T01:33:18.400Z,23.717957
2018-09-14T01:33:47.708Z,23.728027
2018-09-14T01:34:17.026Z,23.728027
2018-09-14T01:34:46.377Z,23.728027
2018-09-14T01:35:16.684Z,23.728027
2018-09-14T01:35:46.976Z,23.717957
2018-09-14T01:36:16.288Z,23.717957
2018-09-14T01:36:45.622Z,23.717957
2018-09-14T01:37:14.940Z,23.748169
2018-09-14T01:37:44.371Z,23.728027
2018-09-14T01:38:13.681Z,23.728027
2018-09-14T01:38:42.982Z,23.728027
2018-09-14T01:39:12.332Z,23.728027
2018-09-14T01:39:41.650Z,23.728027
2018-09-14T01:40:10.961Z,23.728027
2018-09-14T01:40:40.269Z,23.748169
2018-09-14T01:41:10.620Z,23.748169
2018-09-14T01:41:39.925Z,23.75824
2018-09-14T01:42:09.218Z,23.75824
2018-09-14T01:42:38.584Z,23.748169
2018-09-14T01:43:07.891Z,23.748169
2018-09-14T01:43:37.222Z,23.75824
2018-09-14T01:44:06.548Z,23.778381
2018-09-14T01:44:35.889Z,23.778381
2018-09-14T01:45:05.200Z,23.788452
2018-09-14T01:45:35.512Z,23.728027
2018-09-14T01:46:04.832Z,23.748169
2018-09-14T01:46:34.157Z,23.748169
2018-09-14T01:47:03.470Z,23.748169
2018-09-14T01:47:32.796Z,23.75824
2018-09-14T01:48:02.179Z,23.778381
2018-09-14T01:48:31.469Z,23.75824
2018-09-14T01:49:00.794Z,23.75824
2018-09-14T01:49:30.090Z,23.788452
2018-09-14T01:49:59.420Z,23.788452
2018-09-14T01:50:28.723Z,23.798523
2018-09-14T01:50:58.026Z,23.788452
2018-09-14T01:51:27.346Z,23.748169
2018-09-14T01:51:56.681Z,23.75824
2018-09-14T01:52:26.003Z,23.748169
2018-09-14T01:52:55.398Z,23.75824
2018-09-14T01:53:24.722Z,23.728027
2018-09-14T01:53:54.051Z,23.728027
2018-09-14T01:54:24.363Z,23.75824
2018-09-14T01:54:53.723Z,23.748169
2018-09-14T01:55:23.037Z,23.717957
2018-09-14T01:55:52.343Z,23.717957
2018-09-14T01:56:21.688Z,23.717957
2018-09-14T01:56:51.007Z,23.697815
2018-09-14T01:57:20.337Z,23.697815
2018-09-14T01:57:49.665Z,23.657532
2018-09-14T01:58:19.038Z,23.627319
2018-09-14T01:58:49.354Z,23.536682
2018-09-14T01:59:18.684Z,23.50647
2018-09-14T01:59:48.004Z,23.526611
2018-09-14T02:00:18.310Z,23.526611
2018-09-14T02:00:47.631Z,23.536682
2018-09-14T02:01:16.956Z,23.536682
2018-09-14T02:01:46.274Z,23.576965
2018-09-14T02:02:15.590Z,23.597107
2018-09-14T02:02:44.915Z,23.576965
2018-09-14T02:03:14.326Z,23.576965
2018-09-14T02:03:43.603Z,23.576965
2018-09-14T02:04:12.972Z,23.526611
2018-09-14T02:04:42.294Z,23.476257
2018-09-14T02:05:11.606Z,23.476257
2018-09-14T02:05:40.937Z,23.496399
2018-09-14T02:06:10.246Z,23.466187
2018-09-14T02:06:39.561Z,23.456116
2018-09-14T02:07:08.858Z,23.466187
2018-09-14T02:07:38.175Z,23.456116
2018-09-14T02:08:07.495Z,23.415833
2018-09-14T02:08:36.871Z,23.456116
2018-09-14T02:09:06.207Z,23.496399
2018-09-14T02:09:35.519Z,23.50647
2018-09-14T02:10:04.837Z,23.536682
2018-09-14T02:10:34.146Z,23.50647
2018-09-14T02:11:03.463Z,23.476257
2018-09-14T02:11:32.781Z,23.476257
2018-09-14T02:12:02.095Z,23.496399
2018-09-14T02:12:32.427Z,23.50647
2018-09-14T02:13:01.746Z,23.50647
2018-09-14T02:13:31.131Z,23.50647
2018-09-14T02:14:00.464Z,23.536682
2018-09-14T02:14:29.785Z,23.536682
2018-09-14T02:14:59.105Z,23.536682
2018-09-14T02:15:28.419Z,23.546753
2018-09-14T02:15:57.750Z,23.50647
2018-09-14T02:16:27.073Z,23.496399
2018-09-14T02:16:56.380Z,23.466187
2018-09-14T02:17:25.692Z,23.456116
2018-09-14T02:17:55.034Z,23.466187
2018-09-14T02:18:24.358Z,23.496399
2018-09-14T02:18:53.737Z,23.476257
2018-09-14T02:19:23.056Z,23.526611
2018-09-14T02:19:52.378Z,23.526611
2018-09-14T02:20:21.697Z,23.536682
2018-09-14T02:20:51.016Z,23.546753
2018-09-14T02:21:20.346Z,23.566895
2018-09-14T02:21:49.666Z,23.566895
2018-09-14T02:22:19.990Z,23.576965
2018-09-14T02:22:49.311Z,23.597107
2018-09-14T02:23:18.644Z,23.536682
2018-09-14T02:23:48.021Z,23.546753
2018-09-14T02:24:18.336Z,23.526611
2018-09-14T02:24:47.672Z,23.50647
2018-09-14T02:25:16.996Z,23.50647
2018-09-14T02:25:46.341Z,23.496399
2018-09-14T02:26:16.681Z,23.50647
2018-09-14T02:26:46.010Z,23.476257
2018-09-14T02:27:15.320Z,23.456116
2018-09-14T02:27:44.657Z,23.425903
2018-09-14T02:28:13.970Z,23.38562
2018-09-14T02:28:43.290Z,23.415833
2018-09-14T02:29:12.677Z,23.395691
2018-09-14T02:29:42.984Z,23.38562
2018-09-14T02:30:12.291Z,23.38562
2018-09-14T02:30:41.626Z,23.395691
2018-09-14T02:31:10.947Z,23.415833
2018-09-14T02:31:40.288Z,23.425903
2018-09-14T02:32:09.610Z,23.425903
2018-09-14T02:32:38.926Z,23.395691
2018-09-14T02:33:08.272Z,23.395691
2018-09-14T02:33:37.591Z,23.415833
2018-09-14T02:34:06.959Z,23.425903
2018-09-14T02:34:36.274Z,23.476257
2018-09-14T02:35:05.607Z,23.456116
2018-09-14T02:35:34.929Z,23.476257
2018-09-14T02:36:04.247Z,23.466187
2018-09-14T02:36:33.554Z,23.466187
2018-09-14T02:37:02.892Z,23.425903
2018-09-14T02:37:32.203Z,23.355408
2018-09-14T02:38:01.521Z,23.284912
2018-09-14T02:38:30.848Z,23.224487
2018-09-14T02:39:00.172Z,23.234558
2018-09-14T02:39:30.540Z,23.194275
2018-09-14T02:39:59.846Z,23.194275
2018-09-14T02:40:29.167Z,23.224487
2018-09-14T02:40:58.516Z,23.204346
2018-09-14T02:41:27.831Z,23.2547
2018-09-14T02:41:57.154Z,23.284912
2018-09-14T02:42:26.471Z,23.305054
2018-09-14T02:42:55.791Z,23.284912
2018-09-14T02:43:25.118Z,23.274841
2018-09-14T02:43:54.446Z,23.284912
2018-09-14T02:44:23.845Z,23.274841
2018-09-14T02:44:53.157Z,23.234558
2018-09-14T02:45:22.483Z,23.224487
2018-09-14T02:45:51.796Z,23.164062
2018-09-14T02:46:21.120Z,23.103638
2018-09-14T02:46:50.448Z,23.073425
2018-09-14T02:47:19.846Z,23.093567
2018-09-14T02:47:49.156Z,23.123779
2018-09-14T02:48:18.499Z,23.123779
2018-09-14T02:48:47.816Z,23.123779
2018-09-14T02:49:17.138Z,23.13385
2018-09-14T02:49:46.519Z,23.164062
2018-09-14T02:50:15.831Z,23.204346
2018-09-14T02:50:45.148Z,23.174133
2018-09-14T02:51:14.463Z,23.164062
2018-09-14T02:51:43.778Z,23.174133
2018-09-14T02:52:13.122Z,23.174133
2018-09-14T02:52:42.430Z,23.174133
2018-09-14T02:53:11.819Z,23.103638
2018-09-14T02:53:41.150Z,23.073425
2018-09-14T02:54:10.583Z,23.053284
2018-09-14T02:54:40.033Z,23.043213
2018-09-14T02:55:09.449Z,23.013
2018-09-14T02:55:38.855Z,23.043213
2018-09-14T02:56:08.285Z,23.053284
2018-09-14T02:56:37.680Z,23.073425
2018-09-14T02:57:07.079Z,23.093567
2018-09-14T02:57:36.492Z,23.093567
2018-09-14T02:58:05.874Z,23.123779
2018-09-14T02:58:35.314Z,23.103638
2018-09-14T02:59:04.711Z,23.123779
2018-09-14T02:59:34.094Z,23.153992
2018-09-14T03:00:04.556Z,23.153992
2018-09-14T03:00:33.928Z,23.174133
2018-09-14T03:01:03.326Z,23.164062
2018-09-14T03:01:32.711Z,23.13385
2018-09-14T03:02:02.107Z,23.103638
2018-09-14T03:02:31.487Z,23.073425
2018-09-14T03:03:00.890Z,23.043213
2018-09-14T03:03:30.288Z,23.013
2018-09-14T03:03:59.679Z,23.013
2018-09-14T03:04:29.065Z,22.982788
2018-09-14T03:04:58.510Z,23.013
2018-09-14T03:05:28.888Z,23.053284
2018-09-14T03:05:58.283Z,23.053284
2018-09-14T03:06:27.697Z,23.073425
2018-09-14T03:06:58.086Z,23.073425
2018-09-14T03:07:27.486Z,23.073425
2018-09-14T03:07:56.885Z,23.053284
2018-09-14T03:08:26.280Z,23.093567
2018-09-14T03:08:55.668Z,23.103638
2018-09-14T03:09:25.057Z,23.093567
2018-09-14T03:09:54.457Z,23.103638
2018-09-14T03:10:23.909Z,23.093567
2018-09-14T03:10:53.314Z,23.073425
2018-09-14T03:11:23.696Z,23.053284
2018-09-14T03:11:53.096Z,23.013
2018-09-14T03:12:22.486Z,22.972717
2018-09-14T03:12:51.880Z,22.942505
2018-09-14T03:13:21.285Z,22.952576
2018-09-14T03:13:51.660Z,22.972717
2018-09-14T03:14:21.058Z,23.023071
2018-09-14T03:14:50.447Z,23.053284
2018-09-14T03:15:19.883Z,23.043213
2018-09-14T03:15:49.262Z,23.053284
2018-09-14T03:16:18.657Z,23.093567
2018-09-14T03:16:48.046Z,23.103638
2018-09-14T03:17:17.429Z,23.073425
2018-09-14T03:17:46.857Z,23.013
2018-09-14T03:18:16.255Z,23.00293
2018-09-14T03:18:45.650Z,23.00293
2018-09-14T03:19:15.046Z,22.942505
2018-09-14T03:19:44.434Z,22.952576
2018-09-14T03:20:13.836Z,22.942505
2018-09-14T03:20:43.263Z,22.952576
2018-09-14T03:21:12.653Z,22.982788
2018-09-14T03:21:42.045Z,23.00293
2018-09-14T03:22:11.430Z,23.043213
2018-09-14T03:22:40.810Z,23.043213
2018-09-14T03:23:10.191Z,23.00293
2018-09-14T03:23:39.570Z,22.952576
2018-09-14T03:24:08.970Z,22.942505
2018-09-14T03:24:38.360Z,22.922363
2018-09-14T03:25:07.749Z,22.952576
2018-09-14T03:25:37.192Z,22.922363
2018-09-14T03:26:06.593Z,22.88208
2018-09-14T03:26:35.973Z,22.88208
2018-09-14T03:27:05.366Z,22.902222
2018-09-14T03:27:34.765Z,22.942505
2018-09-14T03:28:04.145Z,22.972717
2018-09-14T03:28:33.540Z,22.952576
2018-09-14T03:29:02.924Z,22.982788
2018-09-14T03:29:32.309Z,22.982788
2018-09-14T03:30:01.701Z,22.942505
2018-09-14T03:30:31.091Z,22.952576
2018-09-14T03:31:00.540Z,22.952576
2018-09-14T03:31:29.929Z,22.942505
2018-09-14T03:31:59.322Z,22.912292
2018-09-14T03:32:28.700Z,22.851868
2018-09-14T03:32:58.095Z,22.821655
2018-09-14T03:33:27.487Z,22.771301
2018-09-14T03:33:56.896Z,22.821655
2018-09-14T03:34:26.312Z,22.821655
2018-09-14T03:34:55.674Z,22.831726
2018-09-14T03:35:25.073Z,22.861938
2018-09-14T03:35:54.513Z,22.902222
2018-09-14T03:36:23.909Z,22.942505
2018-09-14T03:36:53.289Z,22.922363
2018-09-14T03:37:23.678Z,22.942505
2018-09-14T03:37:53.064Z,22.972717
2018-09-14T03:38:23.471Z,22.982788
2018-09-14T03:38:52.858Z,23.013
2018-09-14T03:39:22.372Z,23.013
2018-09-14T03:39:51.659Z,23.013
2018-09-14T03:40:22.040Z,22.982788
2018-09-14T03:40:51.446Z,22.922363
2018-09-14T03:41:21.887Z,22.902222
2018-09-14T03:41:51.282Z,22.831726
2018-09-14T03:42:20.689Z,22.791443
2018-09-14T03:42:50.080Z,22.771301
2018-09-14T03:43:19.449Z,22.720947
2018-09-14T03:43:48.845Z,22.720947
2018-09-14T03:44:18.238Z,22.680664
2018-09-14T03:44:47.645Z,22.700806
2018-09-14T03:45:17.026Z,22.670593
2018-09-14T03:45:46.426Z,22.650452
2018-09-14T03:46:15.902Z,22.519531
2018-09-14T03:46:45.293Z,22.418823
2018-09-14T03:47:14.680Z,22.368469
2018-09-14T03:47:44.073Z,22.368469
2018-09-14T03:48:13.508Z,22.398682
2018-09-14T03:48:42.881Z,22.428894
2018-09-14T03:49:12.278Z,22.489319
2018-09-14T03:49:41.673Z,22.50946
2018-09-14T03:50:11.076Z,22.549744
2018-09-14T03:50:40.476Z,22.620239
2018-09-14T03:51:09.869Z,22.670593
2018-09-14T03:51:39.305Z,22.720947
2018-09-14T03:52:08.706Z,22.75116
2018-09-14T03:52:38.112Z,22.771301
2018-09-14T03:53:07.503Z,22.76123
2018-09-14T03:53:36.885Z,22.791443
2018-09-14T03:54:06.273Z,22.831726
2018-09-14T03:54:35.660Z,22.861938
2018-09-14T03:55:05.041Z,22.88208
2018-09-14T03:55:34.442Z,22.902222
2018-09-14T03:56:03.845Z,22.902222
2018-09-14T03:56:33.289Z,22.902222
2018-09-14T03:57:02.689Z,22.902222
2018-09-14T03:57:32.086Z,22.942505
2018-09-14T03:58:01.484Z,22.942505
2018-09-14T03:58:30.875Z,22.942505
2018-09-14T03:59:00.248Z,22.942505
2018-09-14T03:59:29.642Z,22.972717
2018-09-14T03:59:59.044Z,22.942505
2018-09-14T04:00:28.471Z,22.972717
2018-09-14T04:00:57.877Z,22.952576
2018-09-14T04:01:27.263Z,22.922363
2018-09-14T04:01:56.739Z,22.972717
2018-09-14T04:02:27.108Z,22.952576
2018-09-14T04:02:56.515Z,22.952576
2018-09-14T04:03:25.936Z,22.982788
2018-09-14T04:03:55.325Z,23.00293
2018-09-14T04:04:24.724Z,23.013
2018-09-14T04:04:54.127Z,23.023071
2018-09-14T04:05:23.523Z,23.023071
2018-09-14T04:05:52.934Z,23.053284
2018-09-14T04:06:22.317Z,23.053284
2018-09-14T04:06:51.771Z,23.043213
2018-09-14T04:07:21.166Z,23.043213
2018-09-14T04:07:50.574Z,23.043213
2018-09-14T04:08:19.948Z,23.043213
2018-09-14T04:08:49.348Z,23.043213
2018-09-14T04:09:18.738Z,23.023071
2018-09-14T04:09:48.143Z,23.023071
2018-09-14T04:10:17.531Z,23.043213
2018-09-14T04:10:46.922Z,23.043213
2018-09-14T04:11:16.312Z,23.00293
2018-09-14T04:11:45.722Z,22.972717
2018-09-14T04:12:15.173Z,22.972717
2018-09-14T04:12:44.552Z,22.952576
2018-09-14T04:13:13.923Z,22.952576
2018-09-14T04:13:43.288Z,22.952576
2018-09-14T04:14:13.690Z,22.982788
2018-09-14T04:14:43.087Z,23.023071
2018-09-14T04:15:12.473Z,23.023071
2018-09-14T04:15:41.872Z,23.023071
2018-09-14T04:16:11.259Z,23.013
2018-09-14T04:16:40.652Z,23.013
2018-09-14T04:17:10.091Z,23.013
2018-09-14T04:17:39.498Z,22.982788
2018-09-14T04:18:08.867Z,22.88208
2018-09-14T04:18:38.334Z,22.831726
2018-09-14T04:19:07.716Z,22.821655
2018-09-14T04:19:37.102Z,22.75116
2018-09-14T04:20:06.509Z,22.75116
2018-09-14T04:20:35.911Z,22.771301
2018-09-14T04:21:05.300Z,22.76123
2018-09-14T04:21:34.700Z,22.771301
2018-09-14T04:22:04.111Z,22.75116
2018-09-14T04:22:34.562Z,22.75116
2018-09-14T04:23:03.947Z,22.700806
2018-09-14T04:23:33.363Z,22.700806
2018-09-14T04:24:02.749Z,22.680664
2018-09-14T04:24:33.102Z,22.720947
2018-09-14T04:25:02.579Z,22.731018
2018-09-14T04:25:31.971Z,22.76123
2018-09-14T04:26:01.377Z,22.801514
2018-09-14T04:26:30.806Z,22.831726
2018-09-14T04:27:00.193Z,22.831726
2018-09-14T04:27:29.643Z,22.861938
2018-09-14T04:27:59.044Z,22.861938
2018-09-14T04:28:28.463Z,22.861938
2018-09-14T04:28:57.849Z,22.851868
2018-09-14T04:29:27.248Z,22.831726
2018-09-14T04:29:56.660Z,22.831726
2018-09-14T04:30:26.068Z,22.851868
2018-09-14T04:30:55.471Z,22.861938
2018-09-14T04:31:24.867Z,22.902222
2018-09-14T04:31:55.251Z,22.952576
2018-09-14T04:32:24.658Z,22.952576
2018-09-14T04:32:54.120Z,22.982788
2018-09-14T04:33:23.555Z,22.982788
2018-09-14T04:33:52.945Z,22.982788
2018-09-14T04:34:23.339Z,23.00293
2018-09-14T04:34:52.749Z,23.023071
2018-09-14T04:35:22.141Z,23.013
2018-09-14T04:35:51.536Z,23.023071
2018-09-14T04:36:20.924Z,23.00293
2018-09-14T04:36:50.325Z,22.982788
2018-09-14T04:37:19.738Z,23.023071
2018-09-14T04:37:49.195Z,23.023071
2018-09-14T04:38:18.596Z,23.043213
2018-09-14T04:38:47.989Z,23.053284
2018-09-14T04:39:17.386Z,23.053284
2018-09-14T04:39:46.785Z,23.043213
2018-09-14T04:40:16.188Z,23.073425
2018-09-14T04:40:45.599Z,23.073425
2018-09-14T04:41:15.003Z,23.043213
2018-09-14T04:41:44.400Z,23.053284
2018-09-14T04:42:13.790Z,23.073425
2018-09-14T04:42:43.181Z,23.093567
2018-09-14T04:43:12.607Z,23.093567
2018-09-14T04:43:42.005Z,23.093567
2018-09-14T04:44:11.401Z,23.073425
2018-09-14T04:44:40.776Z,23.073425
2018-09-14T04:45:10.160Z,23.073425
2018-09-14T04:45:39.549Z,23.093567
2018-09-14T04:46:08.950Z,23.023071
2018-09-14T04:46:38.346Z,22.982788
2018-09-14T04:47:07.748Z,22.952576
2018-09-14T04:47:37.159Z,22.952576
2018-09-14T04:48:06.595Z,22.972717
2018-09-14T04:48:36.002Z,22.972717
2018-09-14T04:49:05.399Z,22.982788
2018-09-14T04:49:34.799Z,22.972717
2018-09-14T04:50:04.201Z,22.952576
2018-09-14T04:50:34.599Z,22.982788
2018-09-14T04:51:04.994Z,22.982788
2018-09-14T04:51:34.417Z,23.00293
2018-09-14T04:52:03.799Z,22.982788
2018-09-14T04:52:33.229Z,23.00293
2018-09-14T04:53:02.623Z,22.972717
2018-09-14T04:53:32.066Z,22.942505
2018-09-14T04:54:01.471Z,22.952576
2018-09-14T04:54:30.867Z,22.922363
2018-09-14T04:55:00.257Z,22.912292
2018-09-14T04:55:29.664Z,22.942505
2018-09-14T04:55:59.055Z,22.952576
2018-09-14T04:56:28.453Z,22.982788
2018-09-14T04:56:57.842Z,23.00293
2018-09-14T04:57:27.312Z,23.013
2018-09-14T04:57:56.638Z,23.043213
2018-09-14T04:58:26.089Z,23.043213
2018-09-14T04:58:55.484Z,23.043213
2018-09-14T04:59:24.873Z,23.053284
2018-09-14T04:59:54.274Z,23.053284
2018-09-14T05:00:23.675Z,23.073425
2018-09-14T05:00:53.083Z,23.073425
2018-09-14T05:01:22.484Z,23.093567
2018-09-14T05:01:51.897Z,23.093567
2018-09-14T05:02:22.286Z,23.103638
2018-09-14T05:02:51.698Z,23.093567
2018-09-14T05:03:21.147Z,23.093567
2018-09-14T05:03:50.551Z,23.093567
2018-09-14T05:04:19.949Z,23.053284
2018-09-14T05:04:49.346Z,23.073425
2018-09-14T05:05:18.743Z,23.073425
2018-09-14T05:05:49.144Z,23.023071
2018-09-14T05:06:18.541Z,23.043213
2018-09-14T05:06:47.950Z,23.013
2018-09-14T05:07:17.335Z,23.013
2018-09-14T05:07:46.740Z,23.023071
2018-09-14T05:08:16.117Z,23.043213
2018-09-14T05:08:45.585Z,23.023071
2018-09-14T05:09:14.977Z,23.013
2018-09-14T05:09:44.368Z,23.043213
2018-09-14T05:10:13.774Z,23.073425
2018-09-14T05:10:43.177Z,23.073425
2018-09-14T05:11:12.572Z,23.053284
2018-09-14T05:11:41.959Z,23.053284
2018-09-14T05:12:11.365Z,23.073425
2018-09-14T05:12:40.750Z,23.073425
2018-09-14T05:13:10.130Z,23.053284
2018-09-14T05:13:39.542Z,23.073425
2018-09-14T05:14:09.086Z,23.023071
2018-09-14T05:14:38.422Z,23.023071
2018-09-14T05:15:07.816Z,23.023071
2018-09-14T05:15:37.234Z,23.013
2018-09-14T05:16:06.620Z,23.013
2018-09-14T05:16:36.014Z,23.043213
2018-09-14T05:17:05.413Z,23.043213
2018-09-14T05:17:34.812Z,23.043213
2018-09-14T05:18:04.193Z,22.982788
2018-09-14T05:18:33.589Z,22.972717
2018-09-14T05:19:04.017Z,23.00293
2018-09-14T05:19:33.415Z,23.013
2018-09-14T05:20:02.805Z,23.013
2018-09-14T05:20:32.190Z,23.013
2018-09-14T05:21:01.572Z,23.043213
2018-09-14T05:21:30.961Z,23.043213
2018-09-14T05:22:00.360Z,23.043213
2018-09-14T05:22:29.758Z,23.013
2018-09-14T05:22:59.149Z,23.00293
2018-09-14T05:23:28.532Z,23.013
2018-09-14T05:23:57.938Z,23.00293
2018-09-14T05:24:27.441Z,22.982788
2018-09-14T05:24:56.818Z,23.023071
2018-09-14T05:25:26.161Z,23.043213
2018-09-14T05:25:55.558Z,23.053284
2018-09-14T05:26:24.950Z,23.073425
2018-09-14T05:26:54.350Z,23.093567
2018-09-14T05:27:23.742Z,23.093567
2018-09-14T05:27:53.135Z,23.123779
2018-09-14T05:28:22.543Z,23.123779
2018-09-14T05:28:51.938Z,23.123779
2018-09-14T05:29:21.391Z,23.123779
2018-09-14T05:29:50.800Z,23.103638
2018-09-14T05:30:20.208Z,23.103638
2018-09-14T05:30:49.609Z,23.103638
2018-09-14T05:31:18.993Z,23.093567
2018-09-14T05:31:48.388Z,23.073425
2018-09-14T05:32:18.767Z,23.093567
2018-09-14T05:32:48.152Z,23.073425
2018-09-14T05:33:17.534Z,23.073425
2018-09-14T05:33:47.910Z,23.093567
2018-09-14T05:34:17.319Z,23.103638
2018-09-14T05:34:46.762Z,23.153992
2018-09-14T05:35:16.155Z,23.123779
2018-09-14T05:35:45.552Z,23.093567
2018-09-14T05:36:14.941Z,23.103638
2018-09-14T05:36:44.344Z,23.123779
2018-09-14T05:37:13.745Z,23.013
2018-09-14T05:37:43.139Z,23.053284